sensor_id;sensor_type;location;lat;lon;timestamp;P1;durP1;ratioP1;P2;durP2;ratioP2
67193;SDS011;54121;53.508;49.422;2023-02-02T00:00:19;34.38;;;9.38;;
67193;SDS011;54121;53.508;49.422;2023-02-02T00:02:46;29.30;;;10.32;;
67193;SDS011;54121;53.508;49.422;2023-02-02T00:05:12;44.47;;;13.25;;
67193;SDS011;54121;53.508;49.422;2023-02-02T00:07:39;40.15;;;10.25;;
67193;SDS011;54121;53.508;49.422;2023-02-02T00:10:05;56.03;;;14.70;;
67193;SDS011;54121;53.508;49.422;2023-02-02T00:12:32;65.80;;;16.88;;
67193;SDS011;54121;53.508;49.422;2023-02-02T00:14:59;70.57;;;16.77;;
67193;SDS011;54121;53.508;49.422;2023-02-02T00:17:25;46.85;;;11.20;;
67193;SDS011;54121;53.508;49.422;2023-02-02T00:19:52;65.10;;;16.05;;
67193;SDS011;54121;53.508;49.422;2023-02-02T00:22:18;52.33;;;12.48;;
67193;SDS011;54121;53.508;49.422;2023-02-02T00:24:45;49.70;;;8.15;;
67193;SDS011;54121;53.508;49.422;2023-02-02T00:27:11;66.20;;;14.48;;
67193;SDS011;54121;53.508;49.422;2023-02-02T00:29:38;59.25;;;14.27;;
67193;SDS011;54121;53.508;49.422;2023-02-02T00:32:04;63.80;;;15.38;;
67193;SDS011;54121;53.508;49.422;2023-02-02T00:34:31;51.95;;;12.35;;
67193;SDS011;54121;53.508;49.422;2023-02-02T00:36:57;59.70;;;12.43;;
67193;SDS011;54121;53.508;49.422;2023-02-02T00:39:24;63.75;;;14.90;;
67193;SDS011;54121;53.508;49.422;2023-02-02T00:41:51;54.97;;;14.27;;
67193;SDS011;54121;53.508;49.422;2023-02-02T00:44:17;55.42;;;13.75;;
67193;SDS011;54121;53.508;49.422;2023-02-02T00:47:02;53.08;;;13.52;;
67193;SDS011;54121;53.508;49.422;2023-02-02T00:49:29;51.58;;;13.23;;
67193;SDS011;54121;53.508;49.422;2023-02-02T00:51:56;68.28;;;14.85;;
67193;SDS011;54121;53.508;49.422;2023-02-02T00:54:23;71.55;;;15.57;;
67193;SDS011;54121;53.508;49.422;2023-02-02T00:56:50;62.35;;;13.95;;
67193;SDS011;54121;53.508;49.422;2023-02-02T00:59:16;64.55;;;12.13;;
67193;SDS011;54121;53.508;49.422;2023-02-02T01:01:43;67.15;;;14.68;;
67193;SDS011;54121;53.508;49.422;2023-02-02T01:04:09;45.72;;;11.35;;
67193;SDS011;54121;53.508;49.422;2023-02-02T01:06:36;46.33;;;12.73;;
67193;SDS011;54121;53.508;49.422;2023-02-02T01:09:02;54.75;;;10.27;;
67193;SDS011;54121;53.508;49.422;2023-02-02T01:11:29;47.38;;;11.68;;
67193;SDS011;54121;53.508;49.422;2023-02-02T01:13:56;66.50;;;12.77;;
67193;SDS011;54121;53.508;49.422;2023-02-02T01:16:22;71.60;;;14.38;;
67193;SDS011;54121;53.508;49.422;2023-02-02T01:18:49;60.25;;;12.15;;
67193;SDS011;54121;53.508;49.422;2023-02-02T01:21:16;83.05;;;13.70;;
67193;SDS011;54121;53.508;49.422;2023-02-02T01:23:43;112.47;;;16.90;;
67193;SDS011;54121;53.508;49.422;2023-02-02T01:26:10;76.05;;;14.30;;
67193;SDS011;54121;53.508;49.422;2023-02-02T01:28:37;69.90;;;12.85;;
67193;SDS011;54121;53.508;49.422;2023-02-02T01:31:14;85.90;;;16.67;;
67193;SDS011;54121;53.508;49.422;2023-02-02T01:33:45;67.82;;;13.20;;
67193;SDS011;54121;53.508;49.422;2023-02-02T01:36:13;98.85;;;18.23;;
67193;SDS011;54121;53.508;49.422;2023-02-02T01:38:42;91.00;;;16.93;;
67193;SDS011;54121;53.508;49.422;2023-02-02T01:41:11;73.88;;;14.23;;
67193;SDS011;54121;53.508;49.422;2023-02-02T01:46:12;117.32;;;17.75;;
67193;SDS011;54121;53.508;49.422;2023-02-02T01:48:40;98.78;;;18.70;;
67193;SDS011;54121;53.508;49.422;2023-02-02T01:51:12;87.82;;;14.50;;
67193;SDS011;54121;53.508;49.422;2023-02-02T01:53:42;91.75;;;14.52;;
67193;SDS011;54121;53.508;49.422;2023-02-02T01:56:11;91.88;;;16.10;;
67193;SDS011;54121;53.508;49.422;2023-02-02T01:58:42;87.05;;;15.75;;
67193;SDS011;54121;53.508;49.422;2023-02-02T02:01:10;74.70;;;12.65;;
67193;SDS011;54121;53.508;49.422;2023-02-02T02:03:37;97.75;;;16.70;;
67193;SDS011;54121;53.508;49.422;2023-02-02T02:06:10;114.95;;;18.33;;
67193;SDS011;54121;53.508;49.422;2023-02-02T02:08:42;145.68;;;23.15;;
67193;SDS011;54121;53.508;49.422;2023-02-02T02:11:20;146.48;;;24.83;;
67193;SDS011;54121;53.508;49.422;2023-02-02T02:13:48;127.07;;;19.13;;
67193;SDS011;54121;53.508;49.422;2023-02-02T02:22:02;92.18;;;15.63;;
67193;SDS011;54121;53.508;49.422;2023-02-02T02:36:18;71.05;;;13.68;;
67193;SDS011;54121;53.508;49.422;2023-02-02T02:44:31;78.32;;;14.23;;
67193;SDS011;54121;53.508;49.422;2023-02-02T02:47:09;88.13;;;14.43;;
67193;SDS011;54121;53.508;49.422;2023-02-02T02:49:42;90.03;;;14.10;;
67193;SDS011;54121;53.508;49.422;2023-02-02T02:52:10;89.97;;;15.50;;
67193;SDS011;54121;53.508;49.422;2023-02-02T02:54:40;74.43;;;13.20;;
67193;SDS011;54121;53.508;49.422;2023-02-02T03:03:00;91.43;;;15.50;;
67193;SDS011;54121;53.508;49.422;2023-02-02T03:08:26;111.45;;;20.27;;
67193;SDS011;54121;53.508;49.422;2023-02-02T03:10:59;69.10;;;13.32;;
67193;SDS011;54121;53.508;49.422;2023-02-02T03:13:28;92.30;;;16.10;;
67193;SDS011;54121;53.508;49.422;2023-02-02T03:15:56;109.10;;;16.35;;
67193;SDS011;54121;53.508;49.422;2023-02-02T03:18:24;103.07;;;18.02;;
67193;SDS011;54121;53.508;49.422;2023-02-02T03:20:53;142.98;;;25.58;;
67193;SDS011;54121;53.508;49.422;2023-02-02T03:23:20;89.25;;;16.25;;
67193;SDS011;54121;53.508;49.422;2023-02-02T03:25:47;147.18;;;27.90;;
67193;SDS011;54121;53.508;49.422;2023-02-02T03:28:13;98.25;;;18.73;;
67193;SDS011;54121;53.508;49.422;2023-02-02T03:30:41;104.43;;;16.98;;
67193;SDS011;54121;53.508;49.422;2023-02-02T03:33:09;80.57;;;12.48;;
67193;SDS011;54121;53.508;49.422;2023-02-02T03:35:37;74.40;;;13.75;;
67193;SDS011;54121;53.508;49.422;2023-02-02T03:38:03;93.20;;;17.75;;
67193;SDS011;54121;53.508;49.422;2023-02-02T03:40:30;84.45;;;15.05;;
67193;SDS011;54121;53.508;49.422;2023-02-02T03:42:56;77.75;;;13.63;;
67193;SDS011;54121;53.508;49.422;2023-02-02T03:45:25;84.25;;;13.80;;
67193;SDS011;54121;53.508;49.422;2023-02-02T03:47:52;84.07;;;15.98;;
67193;SDS011;54121;53.508;49.422;2023-02-02T03:50:35;68.45;;;13.10;;
67193;SDS011;54121;53.508;49.422;2023-02-02T03:53:02;59.40;;;11.93;;
67193;SDS011;54121;53.508;49.422;2023-02-02T03:55:29;58.28;;;12.63;;
67193;SDS011;54121;53.508;49.422;2023-02-02T03:57:56;54.40;;;10.88;;
67193;SDS011;54121;53.508;49.422;2023-02-02T04:00:22;71.07;;;15.32;;
67193;SDS011;54121;53.508;49.422;2023-02-02T04:02:49;67.22;;;12.57;;
67193;SDS011;54121;53.508;49.422;2023-02-02T04:05:15;75.57;;;12.45;;
67193;SDS011;54121;53.508;49.422;2023-02-02T04:07:42;61.00;;;12.20;;
67193;SDS011;54121;53.508;49.422;2023-02-02T04:10:13;47.67;;;9.50;;
67193;SDS011;54121;53.508;49.422;2023-02-02T04:13:01;67.80;;;12.30;;
67193;SDS011;54121;53.508;49.422;2023-02-02T04:15:28;50.20;;;11.05;;
67193;SDS011;54121;53.508;49.422;2023-02-02T04:17:54;67.50;;;13.07;;
67193;SDS011;54121;53.508;49.422;2023-02-02T04:20:32;64.68;;;11.93;;
67193;SDS011;54121;53.508;49.422;2023-02-02T04:22:59;59.63;;;12.98;;
67193;SDS011;54121;53.508;49.422;2023-02-02T04:25:26;61.85;;;11.68;;
67193;SDS011;54121;53.508;49.422;2023-02-02T04:27:52;62.13;;;12.75;;
67193;SDS011;54121;53.508;49.422;2023-02-02T04:30:19;60.75;;;11.27;;
67193;SDS011;54121;53.508;49.422;2023-02-02T04:32:46;60.33;;;12.63;;
67193;SDS011;54121;53.508;49.422;2023-02-02T04:35:12;55.55;;;11.45;;
67193;SDS011;54121;53.508;49.422;2023-02-02T04:37:39;52.42;;;13.18;;
67193;SDS011;54121;53.508;49.422;2023-02-02T04:40:06;60.85;;;12.05;;
67193;SDS011;54121;53.508;49.422;2023-02-02T04:42:33;49.55;;;11.75;;
67193;SDS011;54121;53.508;49.422;2023-02-02T04:44:59;62.45;;;12.20;;
67193;SDS011;54121;53.508;49.422;2023-02-02T04:47:26;78.97;;;13.80;;
67193;SDS011;54121;53.508;49.422;2023-02-02T04:49:52;79.95;;;15.38;;
67193;SDS011;54121;53.508;49.422;2023-02-02T04:52:19;69.10;;;14.73;;
67193;SDS011;54121;53.508;49.422;2023-02-02T04:54:45;52.25;;;12.77;;
67193;SDS011;54121;53.508;49.422;2023-02-02T04:57:12;58.42;;;13.50;;
67193;SDS011;54121;53.508;49.422;2023-02-02T04:59:38;56.95;;;12.82;;
67193;SDS011;54121;53.508;49.422;2023-02-02T05:02:05;55.72;;;12.13;;
67193;SDS011;54121;53.508;49.422;2023-02-02T05:04:31;59.15;;;12.30;;
67193;SDS011;54121;53.508;49.422;2023-02-02T05:06:58;49.38;;;11.90;;
67193;SDS011;54121;53.508;49.422;2023-02-02T05:09:25;41.72;;;10.02;;
67193;SDS011;54121;53.508;49.422;2023-02-02T05:11:51;54.80;;;12.80;;
67193;SDS011;54121;53.508;49.422;2023-02-02T05:14:18;59.40;;;13.18;;
67193;SDS011;54121;53.508;49.422;2023-02-02T05:16:56;49.17;;;11.40;;
67193;SDS011;54121;53.508;49.422;2023-02-02T05:19:34;60.60;;;13.60;;
67193;SDS011;54121;53.508;49.422;2023-02-02T05:22:01;69.18;;;17.17;;
67193;SDS011;54121;53.508;49.422;2023-02-02T05:24:27;56.05;;;12.35;;
67193;SDS011;54121;53.508;49.422;2023-02-02T05:26:54;53.47;;;11.82;;
67193;SDS011;54121;53.508;49.422;2023-02-02T05:29:25;64.15;;;14.90;;
67193;SDS011;54121;53.508;49.422;2023-02-02T05:31:52;46.85;;;11.95;;
67193;SDS011;54121;53.508;49.422;2023-02-02T05:34:19;50.70;;;12.70;;
67193;SDS011;54121;53.508;49.422;2023-02-02T05:36:46;60.90;;;14.15;;
67193;SDS011;54121;53.508;49.422;2023-02-02T05:39:13;59.63;;;12.75;;
67193;SDS011;54121;53.508;49.422;2023-02-02T05:41:40;62.30;;;14.20;;
67193;SDS011;54121;53.508;49.422;2023-02-02T05:44:12;70.32;;;13.85;;
67193;SDS011;54121;53.508;49.422;2023-02-02T05:46:57;63.05;;;14.93;;
67193;SDS011;54121;53.508;49.422;2023-02-02T05:49:42;54.38;;;12.80;;
67193;SDS011;54121;53.508;49.422;2023-02-02T05:52:15;60.42;;;14.10;;
67193;SDS011;54121;53.508;49.422;2023-02-02T05:54:50;58.75;;;12.23;;
67193;SDS011;54121;53.508;49.422;2023-02-02T05:57:16;59.35;;;12.68;;
67193;SDS011;54121;53.508;49.422;2023-02-02T05:59:43;61.13;;;16.58;;
67193;SDS011;54121;53.508;49.422;2023-02-02T06:02:09;56.03;;;13.93;;
67193;SDS011;54121;53.508;49.422;2023-02-02T06:04:36;50.80;;;13.77;;
67193;SDS011;54121;53.508;49.422;2023-02-02T06:07:02;61.20;;;14.30;;
67193;SDS011;54121;53.508;49.422;2023-02-02T06:09:29;58.80;;;14.55;;
67193;SDS011;54121;53.508;49.422;2023-02-02T06:11:56;48.15;;;14.20;;
67193;SDS011;54121;53.508;49.422;2023-02-02T06:14:22;51.33;;;14.85;;
67193;SDS011;54121;53.508;49.422;2023-02-02T06:16:49;47.60;;;13.43;;
67193;SDS011;54121;53.508;49.422;2023-02-02T06:19:27;48.15;;;16.58;;
67193;SDS011;54121;53.508;49.422;2023-02-02T06:21:54;51.63;;;14.50;;
67193;SDS011;54121;53.508;49.422;2023-02-02T06:24:28;51.95;;;14.40;;
67193;SDS011;54121;53.508;49.422;2023-02-02T06:27:00;50.65;;;13.57;;
67193;SDS011;54121;53.508;49.422;2023-02-02T06:29:27;47.22;;;11.27;;
67193;SDS011;54121;53.508;49.422;2023-02-02T06:31:54;43.45;;;12.20;;
67193;SDS011;54121;53.508;49.422;2023-02-02T06:34:20;46.70;;;12.95;;
67193;SDS011;54121;53.508;49.422;2023-02-02T06:36:48;43.78;;;11.68;;
67193;SDS011;54121;53.508;49.422;2023-02-02T06:39:14;40.88;;;10.65;;
67193;SDS011;54121;53.508;49.422;2023-02-02T06:41:41;59.60;;;16.58;;
67193;SDS011;54121;53.508;49.422;2023-02-02T06:44:12;43.92;;;12.82;;
67193;SDS011;54121;53.508;49.422;2023-02-02T06:46:41;63.17;;;17.77;;
67193;SDS011;54121;53.508;49.422;2023-02-02T06:49:07;52.22;;;16.02;;
67193;SDS011;54121;53.508;49.422;2023-02-02T06:51:34;56.80;;;14.55;;
67193;SDS011;54121;53.508;49.422;2023-02-02T06:54:00;44.67;;;13.57;;
67193;SDS011;54121;53.508;49.422;2023-02-02T06:56:33;43.08;;;12.20;;
67193;SDS011;54121;53.508;49.422;2023-02-02T06:58:59;48.03;;;13.13;;
67193;SDS011;54121;53.508;49.422;2023-02-02T07:01:26;53.38;;;16.63;;
67193;SDS011;54121;53.508;49.422;2023-02-02T07:03:52;49.20;;;13.65;;
67193;SDS011;54121;53.508;49.422;2023-02-02T07:06:21;44.38;;;12.70;;
67193;SDS011;54121;53.508;49.422;2023-02-02T07:11:16;53.83;;;15.85;;
67193;SDS011;54121;53.508;49.422;2023-02-02T07:13:43;57.88;;;14.10;;
67193;SDS011;54121;53.508;49.422;2023-02-02T07:16:10;54.00;;;13.45;;
67193;SDS011;54121;53.508;49.422;2023-02-02T07:18:37;43.08;;;11.40;;
67193;SDS011;54121;53.508;49.422;2023-02-02T07:21:05;51.88;;;14.60;;
67193;SDS011;54121;53.508;49.422;2023-02-02T07:23:32;49.63;;;13.95;;
67193;SDS011;54121;53.508;49.422;2023-02-02T07:26:00;59.60;;;14.93;;
67193;SDS011;54121;53.508;49.422;2023-02-02T07:28:28;59.63;;;17.50;;
67193;SDS011;54121;53.508;49.422;2023-02-02T07:30:54;54.00;;;13.93;;
67193;SDS011;54121;53.508;49.422;2023-02-02T07:33:21;52.13;;;15.05;;
67193;SDS011;54121;53.508;49.422;2023-02-02T07:35:48;52.63;;;16.98;;
67193;SDS011;54121;53.508;49.422;2023-02-02T07:38:14;55.42;;;15.10;;
67193;SDS011;54121;53.508;49.422;2023-02-02T07:40:41;49.42;;;13.68;;
67193;SDS011;54121;53.508;49.422;2023-02-02T07:43:08;58.13;;;15.30;;
67193;SDS011;54121;53.508;49.422;2023-02-02T07:45:35;51.40;;;16.13;;
67193;SDS011;54121;53.508;49.422;2023-02-02T07:48:01;58.70;;;15.57;;
67193;SDS011;54121;53.508;49.422;2023-02-02T07:50:29;52.42;;;16.92;;
67193;SDS011;54121;53.508;49.422;2023-02-02T07:52:57;51.65;;;14.93;;
67193;SDS011;54121;53.508;49.422;2023-02-02T07:55:25;62.38;;;19.13;;
67193;SDS011;54121;53.508;49.422;2023-02-02T07:57:51;68.85;;;20.30;;
67193;SDS011;54121;53.508;49.422;2023-02-02T08:00:26;42.55;;;13.98;;
67193;SDS011;54121;53.508;49.422;2023-02-02T08:02:59;63.45;;;21.40;;
67193;SDS011;54121;53.508;49.422;2023-02-02T08:05:26;57.67;;;19.23;;
67193;SDS011;54121;53.508;49.422;2023-02-02T08:07:53;58.13;;;20.17;;
67193;SDS011;54121;53.508;49.422;2023-02-02T08:10:19;56.03;;;16.17;;
67193;SDS011;54121;53.508;49.422;2023-02-02T08:12:45;57.90;;;16.80;;
67193;SDS011;54121;53.508;49.422;2023-02-02T08:15:12;46.72;;;16.23;;
67193;SDS011;54121;53.508;49.422;2023-02-02T08:17:39;54.70;;;17.77;;
67193;SDS011;54121;53.508;49.422;2023-02-02T08:20:10;62.53;;;20.10;;
67193;SDS011;54121;53.508;49.422;2023-02-02T08:22:38;57.13;;;17.83;;
67193;SDS011;54121;53.508;49.422;2023-02-02T08:25:04;51.08;;;15.95;;
67193;SDS011;54121;53.508;49.422;2023-02-02T08:27:31;58.03;;;19.13;;
67193;SDS011;54121;53.508;49.422;2023-02-02T08:29:58;51.75;;;18.67;;
67193;SDS011;54121;53.508;49.422;2023-02-02T08:32:24;46.30;;;16.95;;
67193;SDS011;54121;53.508;49.422;2023-02-02T08:34:51;54.67;;;18.48;;
67193;SDS011;54121;53.508;49.422;2023-02-02T08:37:18;57.10;;;18.88;;
67193;SDS011;54121;53.508;49.422;2023-02-02T08:39:46;51.38;;;17.50;;
67193;SDS011;54121;53.508;49.422;2023-02-02T08:42:12;59.30;;;20.05;;
67193;SDS011;54121;53.508;49.422;2023-02-02T08:44:38;52.90;;;18.85;;
67193;SDS011;54121;53.508;49.422;2023-02-02T08:47:06;49.65;;;17.70;;
67193;SDS011;54121;53.508;49.422;2023-02-02T08:49:39;59.33;;;20.52;;
67193;SDS011;54121;53.508;49.422;2023-02-02T08:52:07;53.83;;;19.23;;
67193;SDS011;54121;53.508;49.422;2023-02-02T08:54:33;52.75;;;19.63;;
67193;SDS011;54121;53.508;49.422;2023-02-02T08:57:00;51.25;;;16.42;;
67193;SDS011;54121;53.508;49.422;2023-02-02T08:59:26;59.08;;;18.95;;
67193;SDS011;54121;53.508;49.422;2023-02-02T09:01:52;48.40;;;17.75;;
67193;SDS011;54121;53.508;49.422;2023-02-02T09:04:19;45.70;;;18.33;;
67193;SDS011;54121;53.508;49.422;2023-02-02T09:06:45;54.05;;;23.13;;
67193;SDS011;54121;53.508;49.422;2023-02-02T09:09:13;46.45;;;17.92;;
67193;SDS011;54121;53.508;49.422;2023-02-02T09:11:41;55.03;;;20.20;;
67193;SDS011;54121;53.508;49.422;2023-02-02T09:14:09;56.17;;;21.88;;
67193;SDS011;54121;53.508;49.422;2023-02-02T09:16:38;54.50;;;19.37;;
67193;SDS011;54121;53.508;49.422;2023-02-02T09:19:05;47.88;;;20.13;;
67193;SDS011;54121;53.508;49.422;2023-02-02T09:21:31;50.63;;;20.88;;
67193;SDS011;54121;53.508;49.422;2023-02-02T09:24:08;54.05;;;21.38;;
67193;SDS011;54121;53.508;49.422;2023-02-02T09:26:36;49.05;;;19.80;;
67193;SDS011;54121;53.508;49.422;2023-02-02T09:29:05;56.88;;;21.23;;
67193;SDS011;54121;53.508;49.422;2023-02-02T09:31:33;50.72;;;22.33;;
67193;SDS011;54121;53.508;49.422;2023-02-02T09:34:03;53.25;;;18.90;;
67193;SDS011;54121;53.508;49.422;2023-02-02T09:36:31;49.97;;;19.13;;
67193;SDS011;54121;53.508;49.422;2023-02-02T09:38:58;53.85;;;20.83;;
67193;SDS011;54121;53.508;49.422;2023-02-02T09:50:01;54.08;;;18.98;;
67193;SDS011;54121;53.508;49.422;2023-02-02T09:53:31;43.28;;;17.38;;
67193;SDS011;54121;53.508;49.422;2023-02-02T09:56:04;43.28;;;19.20;;
67193;SDS011;54121;53.508;49.422;2023-02-02T09:58:40;45.10;;;18.88;;
67193;SDS011;54121;53.508;49.422;2023-02-02T10:01:44;41.17;;;17.65;;
67193;SDS011;54121;53.508;49.422;2023-02-02T10:04:15;45.65;;;18.42;;
67193;SDS011;54121;53.508;49.422;2023-02-02T10:06:57;39.47;;;17.65;;
67193;SDS011;54121;53.508;49.422;2023-02-02T10:09:56;39.22;;;18.00;;
67193;SDS011;54121;53.508;49.422;2023-02-02T10:12:33;42.00;;;18.75;;
67193;SDS011;54121;53.508;49.422;2023-02-02T10:15:20;36.33;;;17.38;;
67193;SDS011;54121;53.508;49.422;2023-02-02T10:21:16;37.73;;;17.17;;
67193;SDS011;54121;53.508;49.422;2023-02-02T10:24:02;40.45;;;18.30;;
67193;SDS011;54121;53.508;49.422;2023-02-02T10:26:33;37.15;;;17.88;;
67193;SDS011;54121;53.508;49.422;2023-02-02T10:29:11;40.17;;;17.83;;
67193;SDS011;54121;53.508;49.422;2023-02-02T10:32:05;44.65;;;18.55;;
67193;SDS011;54121;53.508;49.422;2023-02-02T10:40:39;35.83;;;18.05;;
67193;SDS011;54121;53.508;49.422;2023-02-02T10:46:41;38.13;;;17.58;;
67193;SDS011;54121;53.508;49.422;2023-02-02T10:49:26;39.10;;;18.73;;
67193;SDS011;54121;53.508;49.422;2023-02-02T10:54:41;37.47;;;16.60;;
67193;SDS011;54121;53.508;49.422;2023-02-02T10:57:18;39.17;;;17.73;;
67193;SDS011;54121;53.508;49.422;2023-02-02T11:02:48;41.85;;;16.45;;
67193;SDS011;54121;53.508;49.422;2023-02-02T11:05:18;45.88;;;18.77;;
67193;SDS011;54121;53.508;49.422;2023-02-02T11:08:16;46.92;;;17.33;;
67193;SDS011;54121;53.508;49.422;2023-02-02T11:14:08;56.22;;;20.67;;
67193;SDS011;54121;53.508;49.422;2023-02-02T11:16:41;46.42;;;16.98;;
67193;SDS011;54121;53.508;49.422;2023-02-02T11:19:20;43.72;;;17.75;;
67193;SDS011;54121;53.508;49.422;2023-02-02T11:21:53;48.25;;;19.25;;
67193;SDS011;54121;53.508;49.422;2023-02-02T11:27:40;49.72;;;20.42;;
67193;SDS011;54121;53.508;49.422;2023-02-02T11:29:52;50.15;;;19.75;;
67193;SDS011;54121;53.508;49.422;2023-02-02T11:32:33;57.47;;;19.58;;
67193;SDS011;54121;53.508;49.422;2023-02-02T11:37:32;51.05;;;18.85;;
67193;SDS011;54121;53.508;49.422;2023-02-02T11:46:05;50.92;;;20.77;;
67193;SDS011;54121;53.508;49.422;2023-02-02T11:48:52;59.80;;;21.45;;
67193;SDS011;54121;53.508;49.422;2023-02-02T11:51:23;47.67;;;19.10;;
67193;SDS011;54121;53.508;49.422;2023-02-02T11:54:26;51.15;;;21.25;;
67193;SDS011;54121;53.508;49.422;2023-02-02T11:56:56;43.47;;;18.88;;
67193;SDS011;54121;53.508;49.422;2023-02-02T11:59:28;37.78;;;17.55;;
67193;SDS011;54121;53.508;49.422;2023-02-02T12:04:40;40.65;;;20.05;;
67193;SDS011;54121;53.508;49.422;2023-02-02T12:10:00;44.50;;;20.88;;
67193;SDS011;54121;53.508;49.422;2023-02-02T12:12:59;36.70;;;17.58;;
67193;SDS011;54121;53.508;49.422;2023-02-02T12:28:29;40.83;;;17.38;;
67193;SDS011;54121;53.508;49.422;2023-02-02T12:46:01;40.78;;;19.67;;
67193;SDS011;54121;53.508;49.422;2023-02-02T12:56:46;29.98;;;14.38;;
67193;SDS011;54121;53.508;49.422;2023-02-02T13:02:27;27.80;;;16.10;;
67193;SDS011;54121;53.508;49.422;2023-02-02T13:08:05;26.85;;;14.18;;
67193;SDS011;54121;53.508;49.422;2023-02-02T13:10:48;29.38;;;14.70;;
67193;SDS011;54121;53.508;49.422;2023-02-02T13:13:28;26.55;;;13.68;;
67193;SDS011;54121;53.508;49.422;2023-02-02T13:16:05;32.53;;;16.40;;
67193;SDS011;54121;53.508;49.422;2023-02-02T13:18:40;30.08;;;15.65;;
67193;SDS011;54121;53.508;49.422;2023-02-02T13:21:14;30.13;;;15.38;;
67193;SDS011;54121;53.508;49.422;2023-02-02T13:23:45;32.80;;;16.55;;
67193;SDS011;54121;53.508;49.422;2023-02-02T13:26:31;33.30;;;15.70;;
67193;SDS011;54121;53.508;49.422;2023-02-02T13:29:07;32.83;;;15.25;;
67193;SDS011;54121;53.508;49.422;2023-02-02T13:32:32;33.42;;;17.25;;
67193;SDS011;54121;53.508;49.422;2023-02-02T13:35:20;33.97;;;16.55;;
67193;SDS011;54121;53.508;49.422;2023-02-02T13:38:21;30.90;;;14.95;;
67193;SDS011;54121;53.508;49.422;2023-02-02T13:40:49;40.45;;;16.92;;
67193;SDS011;54121;53.508;49.422;2023-02-02T13:55:05;30.23;;;16.10;;
67193;SDS011;54121;53.508;49.422;2023-02-02T14:00:33;29.60;;;14.52;;
67193;SDS011;54121;53.508;49.422;2023-02-02T14:03:04;31.27;;;15.57;;
67193;SDS011;54121;53.508;49.422;2023-02-02T14:06:00;31.63;;;15.60;;
67193;SDS011;54121;53.508;49.422;2023-02-02T14:08:46;36.35;;;16.75;;
67193;SDS011;54121;53.508;49.422;2023-02-02T14:11:20;31.65;;;15.40;;
67193;SDS011;54121;53.508;49.422;2023-02-02T14:13:51;37.50;;;19.10;;
67193;SDS011;54121;53.508;49.422;2023-02-02T14:16:41;37.13;;;18.63;;
67193;SDS011;54121;53.508;49.422;2023-02-02T14:22:15;41.17;;;19.70;;
67193;SDS011;54121;53.508;49.422;2023-02-02T14:24:44;50.40;;;23.40;;
67193;SDS011;54121;53.508;49.422;2023-02-02T14:48:40;31.80;;;16.10;;
67193;SDS011;54121;53.508;49.422;2023-02-02T14:51:33;38.33;;;16.33;;
67193;SDS011;54121;53.508;49.422;2023-02-02T14:54:46;40.28;;;17.60;;
67193;SDS011;54121;53.508;49.422;2023-02-02T14:59:54;40.15;;;18.92;;
67193;SDS011;54121;53.508;49.422;2023-02-02T15:02:23;34.83;;;14.52;;
67193;SDS011;54121;53.508;49.422;2023-02-02T15:08:04;37.10;;;20.88;;
67193;SDS011;54121;53.508;49.422;2023-02-02T15:13:22;43.92;;;18.92;;
67193;SDS011;54121;53.508;49.422;2023-02-02T15:15:54;38.55;;;17.73;;
67193;SDS011;54121;53.508;49.422;2023-02-02T15:18:31;34.42;;;15.48;;
67193;SDS011;54121;53.508;49.422;2023-02-02T15:21:11;42.00;;;20.00;;
67193;SDS011;54121;53.508;49.422;2023-02-02T15:23:42;41.80;;;21.20;;
67193;SDS011;54121;53.508;49.422;2023-02-02T15:26:21;39.40;;;20.08;;
67193;SDS011;54121;53.508;49.422;2023-02-02T15:29:02;34.97;;;18.17;;
67193;SDS011;54121;53.508;49.422;2023-02-02T15:31:52;34.47;;;15.50;;
67193;SDS011;54121;53.508;49.422;2023-02-02T15:34:32;37.15;;;15.35;;
67193;SDS011;54121;53.508;49.422;2023-02-02T15:37:20;38.78;;;20.20;;
67193;SDS011;54121;53.508;49.422;2023-02-02T15:39:52;42.05;;;19.40;;
67193;SDS011;54121;53.508;49.422;2023-02-02T15:42:41;39.60;;;17.10;;
67193;SDS011;54121;53.508;49.422;2023-02-02T15:45:30;38.17;;;16.10;;
67193;SDS011;54121;53.508;49.422;2023-02-02T15:48:18;38.67;;;19.90;;
67193;SDS011;54121;53.508;49.422;2023-02-02T15:50:46;35.25;;;17.02;;
67193;SDS011;54121;53.508;49.422;2023-02-02T15:53:23;37.00;;;17.17;;
67193;SDS011;54121;53.508;49.422;2023-02-02T15:55:52;37.90;;;18.98;;
67193;SDS011;54121;53.508;49.422;2023-02-02T15:58:24;39.40;;;18.25;;
67193;SDS011;54121;53.508;49.422;2023-02-02T16:03:58;40.45;;;19.25;;
67193;SDS011;54121;53.508;49.422;2023-02-02T16:06:44;38.70;;;19.10;;
67193;SDS011;54121;53.508;49.422;2023-02-02T16:09:25;38.60;;;18.23;;
67193;SDS011;54121;53.508;49.422;2023-02-02T16:11:55;40.88;;;20.05;;
67193;SDS011;54121;53.508;49.422;2023-02-02T16:14:22;43.58;;;22.30;;
67193;SDS011;54121;53.508;49.422;2023-02-02T16:16:48;48.47;;;25.05;;
67193;SDS011;54121;53.508;49.422;2023-02-02T16:19:19;42.58;;;20.60;;
67193;SDS011;54121;53.508;49.422;2023-02-02T16:24:24;44.83;;;21.65;;
67193;SDS011;54121;53.508;49.422;2023-02-02T16:27:00;44.88;;;22.15;;
67193;SDS011;54121;53.508;49.422;2023-02-02T16:29:30;46.70;;;18.52;;
67193;SDS011;54121;53.508;49.422;2023-02-02T16:31:58;43.55;;;22.00;;
67193;SDS011;54121;53.508;49.422;2023-02-02T16:39:37;46.33;;;25.98;;
67193;SDS011;54121;53.508;49.422;2023-02-02T16:42:08;47.28;;;24.67;;
67193;SDS011;54121;53.508;49.422;2023-02-02T16:44:54;44.70;;;21.10;;
67193;SDS011;54121;53.508;49.422;2023-02-02T16:52:34;44.13;;;20.30;;
67193;SDS011;54121;53.508;49.422;2023-02-02T16:55:41;35.63;;;16.60;;
67193;SDS011;54121;53.508;49.422;2023-02-02T16:58:24;39.30;;;20.95;;
67193;SDS011;54121;53.508;49.422;2023-02-02T17:00:59;46.95;;;19.98;;
67193;SDS011;54121;53.508;49.422;2023-02-02T17:03:32;40.72;;;19.23;;
67193;SDS011;54121;53.508;49.422;2023-02-02T17:06:01;52.05;;;27.58;;
67193;SDS011;54121;53.508;49.422;2023-02-02T17:08:36;45.60;;;24.63;;
67193;SDS011;54121;53.508;49.422;2023-02-02T17:11:21;42.15;;;16.95;;
67193;SDS011;54121;53.508;49.422;2023-02-02T17:13:50;39.10;;;19.80;;
67193;SDS011;54121;53.508;49.422;2023-02-02T17:16:20;29.48;;;13.32;;
67193;SDS011;54121;53.508;49.422;2023-02-02T17:18:50;43.67;;;20.15;;
67193;SDS011;54121;53.508;49.422;2023-02-02T17:21:18;44.30;;;23.33;;
67193;SDS011;54121;53.508;49.422;2023-02-02T17:23:48;36.55;;;19.27;;
67193;SDS011;54121;53.508;49.422;2023-02-02T17:26:18;33.53;;;17.52;;
67193;SDS011;54121;53.508;49.422;2023-02-02T17:28:45;40.05;;;19.90;;
67193;SDS011;54121;53.508;49.422;2023-02-02T17:31:13;38.78;;;19.40;;
67193;SDS011;54121;53.508;49.422;2023-02-02T17:33:41;43.15;;;20.80;;
67193;SDS011;54121;53.508;49.422;2023-02-02T17:36:11;46.65;;;28.95;;
67193;SDS011;54121;53.508;49.422;2023-02-02T17:38:38;43.50;;;22.70;;
67193;SDS011;54121;53.508;49.422;2023-02-02T17:41:05;44.33;;;22.25;;
67193;SDS011;54121;53.508;49.422;2023-02-02T17:43:32;36.05;;;17.13;;